Main page
METAR-TAF:

METAR-TAF

Airports :

Elkhart Municipal Airport

Elkhart, Indiana, United States

latitude: 41-43N, longitude: 086-00W, elevation: 777 ft

Current weather observation

The report was made 23 minutes ago, at 10:55 UTC
Calm wind
Temperature 70°F
Humidity 94%
Pressure 29.90 in. Hg
Visibility: 10 miles
Broken clouds at a height of 6000 ft

METAR: KEKM 171055Z 00000KT 10SM BKN060 21/20 A2990 RMK AO2 T02110199 $

Time: 07:18 (11:18 UTC)


TAF: missing

Weather observations and forecasts of more than 4000 airports (METAR and TAF reports).

The available stations are represented by yellow and red dots on the map.

Hover mouse over dot to see the name of the station.

Then click to see weather observations and forecasts.

To change the map : click on the green buttons with a black cross to zoom in, on the green button with a dash to zoom out, or on the green arrows for adjacent maps.


METAR-TAF: